sensor_id;sensor_type;location;lat;lon;timestamp;pressure;altitude;pressure_sealevel;temperature;humidity
43217;BME280;60511;42.686;23.300;2023-04-08T00:01:32;94721.72;;;21.67;27.32
43217;BME280;60511;42.686;23.300;2023-04-08T00:03:32;94760.19;;;21.92;27.50
43217;BME280;60511;42.686;23.300;2023-04-08T00:05:33;94727.66;;;21.73;27.21
43217;BME280;60511;42.686;23.300;2023-04-08T00:07:33;94743.69;;;21.81;27.45
43217;BME280;60511;42.686;23.300;2023-04-08T00:09:34;94739.78;;;21.79;27.43
43217;BME280;60511;42.686;23.300;2023-04-08T00:11:34;94728.00;;;21.71;27.46
43217;BME280;60511;42.686;23.300;2023-04-08T00:13:35;94763.44;;;21.98;27.05
43217;BME280;60511;42.686;23.300;2023-04-08T00:15:36;94759.84;;;21.94;27.17
43217;BME280;60511;42.686;23.300;2023-04-08T00:17:36;94746.16;;;21.86;27.09
43217;BME280;60511;42.686;23.300;2023-04-08T00:19:36;94747.41;;;21.89;27.01
43217;BME280;60511;42.686;23.300;2023-04-08T00:21:37;94712.41;;;21.64;27.35
43217;BME280;60511;42.686;23.300;2023-04-08T00:23:37;94735.63;;;21.81;27.12
43217;BME280;60511;42.686;23.300;2023-04-08T00:25:38;94756.69;;;21.92;27.07
43217;BME280;60511;42.686;23.300;2023-04-08T00:27:38;94729.22;;;21.74;27.50
43217;BME280;60511;42.686;23.300;2023-04-08T00:29:38;94701.84;;;21.59;27.18
43217;BME280;60511;42.686;23.300;2023-04-08T00:31:39;94750.53;;;21.91;27.44
43217;BME280;60511;42.686;23.300;2023-04-08T00:33:40;94750.31;;;21.84;27.21
43217;BME280;60511;42.686;23.300;2023-04-08T00:35:40;94733.63;;;21.78;27.50
43217;BME280;60511;42.686;23.300;2023-04-08T00:37:42;94752.09;;;21.80;27.61
43217;BME280;60511;42.686;23.300;2023-04-08T00:39:42;94751.91;;;21.85;27.57
43217;BME280;60511;42.686;23.300;2023-04-08T00:41:43;94760.44;;;21.87;27.42
43217;BME280;60511;42.686;23.300;2023-04-08T00:43:43;94747.84;;;21.79;27.44
43217;BME280;60511;42.686;23.300;2023-04-08T00:45:43;94738.31;;;21.69;27.80
43217;BME280;60511;42.686;23.300;2023-04-08T00:47:44;94753.00;;;21.84;27.90
43217;BME280;60511;42.686;23.300;2023-04-08T00:49:45;94725.09;;;21.64;27.71
43217;BME280;60511;42.686;23.300;2023-04-08T00:51:46;94735.63;;;21.69;27.73
43217;BME280;60511;42.686;23.300;2023-04-08T00:53:46;94744.03;;;21.80;27.95
43217;BME280;60511;42.686;23.300;2023-04-08T00:55:47;94723.97;;;21.65;27.79
43217;BME280;60511;42.686;23.300;2023-04-08T00:57:47;94763.13;;;21.87;27.37
43217;BME280;60511;42.686;23.300;2023-04-08T00:59:48;94717.56;;;21.57;27.82
43217;BME280;60511;42.686;23.300;2023-04-08T01:02:33;94767.81;;;21.90;27.64
43217;BME280;60511;42.686;23.300;2023-04-08T01:06:49;94764.22;;;21.86;27.50
43217;BME280;60511;42.686;23.300;2023-04-08T01:08:51;94745.75;;;21.72;27.76
43217;BME280;60511;42.686;23.300;2023-04-08T01:10:55;94745.38;;;21.74;27.56
43217;BME280;60511;42.686;23.300;2023-04-08T01:13:04;94770.06;;;21.88;27.84
43217;BME280;60511;42.686;23.300;2023-04-08T01:15:06;94776.25;;;21.89;27.34
43217;BME280;60511;42.686;23.300;2023-04-08T01:17:07;94773.91;;;21.87;27.92
43217;BME280;60511;42.686;23.300;2023-04-08T01:19:23;94768.50;;;21.87;27.44
43217;BME280;60511;42.686;23.300;2023-04-08T01:21:27;94767.72;;;21.86;27.65
43217;BME280;60511;42.686;23.300;2023-04-08T01:26:00;94754.81;;;21.80;27.60
43217;BME280;60511;42.686;23.300;2023-04-08T01:28:04;94767.72;;;21.86;27.76
43217;BME280;60511;42.686;23.300;2023-04-08T01:30:06;94770.50;;;21.90;27.48
43217;BME280;60511;42.686;23.300;2023-04-08T01:32:08;94768.06;;;21.85;27.50
43217;BME280;60511;42.686;23.300;2023-04-08T01:34:10;94742.16;;;21.68;27.75
43217;BME280;60511;42.686;23.300;2023-04-08T01:36:13;94750.69;;;21.70;27.48
43217;BME280;60511;42.686;23.300;2023-04-08T01:38:17;94770.75;;;21.85;27.69
43217;BME280;60511;42.686;23.300;2023-04-08T01:40:18;94749.22;;;21.73;27.55
43217;BME280;60511;42.686;23.300;2023-04-08T01:42:19;94747.28;;;21.73;27.41
43217;BME280;60511;42.686;23.300;2023-04-08T01:44:21;94689.84;;;21.32;28.19
43217;BME280;60511;42.686;23.300;2023-04-08T01:46:23;94721.59;;;21.51;27.50
43217;BME280;60511;42.686;23.300;2023-04-08T01:48:26;94717.69;;;21.49;27.92
43217;BME280;60511;42.686;23.300;2023-04-08T01:50:28;94741.34;;;21.67;27.52
43217;BME280;60511;42.686;23.300;2023-04-08T01:52:31;94763.44;;;21.85;27.86
43217;BME280;60511;42.686;23.300;2023-04-08T01:54:34;94765.25;;;21.81;27.71
43217;BME280;60511;42.686;23.300;2023-04-08T01:56:40;94776.59;;;21.87;27.69
43217;BME280;60511;42.686;23.300;2023-04-08T01:59:00;94770.06;;;21.76;27.43
43217;BME280;60511;42.686;23.300;2023-04-08T02:01:04;94768.06;;;21.73;27.51
43217;BME280;60511;42.686;23.300;2023-04-08T02:03:07;94749.66;;;21.62;27.68
43217;BME280;60511;42.686;23.300;2023-04-08T02:05:11;94741.34;;;21.55;27.48
43217;BME280;60511;42.686;23.300;2023-04-08T02:07:13;94789.50;;;21.81;27.66
43217;BME280;60511;42.686;23.300;2023-04-08T02:09:13;94771.88;;;21.72;27.70
43217;BME280;60511;42.686;23.300;2023-04-08T02:11:14;94771.09;;;21.71;27.47
43217;BME280;60511;42.686;23.300;2023-04-08T02:13:15;94795.78;;;21.85;27.76
43217;BME280;60511;42.686;23.300;2023-04-08T02:15:15;94777.16;;;21.68;27.73
43217;BME280;60511;42.686;23.300;2023-04-08T02:17:24;94801.06;;;21.82;27.38
43217;BME280;60511;42.686;23.300;2023-04-08T02:20:07;94795.00;;;21.85;27.43
43217;BME280;60511;42.686;23.300;2023-04-08T02:22:15;94797.13;;;21.79;27.97
43217;BME280;60511;42.686;23.300;2023-04-08T02:24:17;94758.78;;;21.58;27.83
43217;BME280;60511;42.686;23.300;2023-04-08T02:26:19;94798.28;;;21.78;27.92
43217;BME280;60511;42.686;23.300;2023-04-08T02:28:21;94782.44;;;21.64;27.64
43217;BME280;60511;42.686;23.300;2023-04-08T02:30:23;94802.97;;;21.81;27.53
43217;BME280;60511;42.686;23.300;2023-04-08T02:32:25;94794.78;;;21.78;27.79
43217;BME280;60511;42.686;23.300;2023-04-08T02:34:26;94794.88;;;21.81;27.71
43217;BME280;60511;42.686;23.300;2023-04-08T02:36:27;94792.97;;;21.82;28.05
43217;BME280;60511;42.686;23.300;2023-04-08T02:38:27;94757.88;;;21.54;27.48
43217;BME280;60511;42.686;23.300;2023-04-08T02:40:31;94770.06;;;21.63;27.52
43217;BME280;60511;42.686;23.300;2023-04-08T02:42:32;94750.44;;;21.51;27.88
43217;BME280;60511;42.686;23.300;2023-04-08T02:44:33;94764.94;;;21.58;28.05
43217;BME280;60511;42.686;23.300;2023-04-08T02:46:33;94777.84;;;21.65;28.09
43217;BME280;60511;42.686;23.300;2023-04-08T02:48:34;94803.66;;;21.78;27.54
43217;BME280;60511;42.686;23.300;2023-04-08T02:50:35;94795.22;;;21.80;27.61
43217;BME280;60511;42.686;23.300;2023-04-08T02:52:36;94791.31;;;21.77;27.87
43217;BME280;60511;42.686;23.300;2023-04-08T02:54:36;94767.50;;;21.55;28.36
43217;BME280;60511;42.686;23.300;2023-04-08T02:56:36;94789.63;;;21.73;28.32
43217;BME280;60511;42.686;23.300;2023-04-08T02:58:37;94779.41;;;21.66;28.32
43217;BME280;60511;42.686;23.300;2023-04-08T03:00:37;94771.09;;;21.59;28.51
43217;BME280;60511;42.686;23.300;2023-04-08T03:02:38;94767.28;;;21.60;28.20
43217;BME280;60511;42.686;23.300;2023-04-08T03:04:39;94785.91;;;21.65;28.39
43217;BME280;60511;42.686;23.300;2023-04-08T03:06:39;94768.97;;;21.52;28.18
43217;BME280;60511;42.686;23.300;2023-04-08T03:08:40;94792.53;;;21.67;28.41
43217;BME280;60511;42.686;23.300;2023-04-08T03:10:40;94797.47;;;21.78;27.96
43217;BME280;60511;42.686;23.300;2023-04-08T03:12:41;94771.22;;;21.62;28.15
43217;BME280;60511;42.686;23.300;2023-04-08T03:14:42;94783.09;;;21.74;27.82
43217;BME280;60511;42.686;23.300;2023-04-08T03:16:42;94782.66;;;21.72;27.81
43217;BME280;60511;42.686;23.300;2023-04-08T03:18:42;94791.41;;;21.81;27.60
43217;BME280;60511;42.686;23.300;2023-04-08T03:20:43;94738.34;;;21.44;27.75
43217;BME280;60511;42.686;23.300;2023-04-08T03:22:43;94785.13;;;21.77;27.61
43217;BME280;60511;42.686;23.300;2023-04-08T03:24:44;94793.41;;;21.84;27.88
43217;BME280;60511;42.686;23.300;2023-04-08T03:26:44;94797.59;;;21.81;27.79
43217;BME280;60511;42.686;23.300;2023-04-08T03:28:45;94796.81;;;21.81;27.54
43217;BME280;60511;42.686;23.300;2023-04-08T03:30:45;94764.25;;;21.61;27.58
43217;BME280;60511;42.686;23.300;2023-04-08T03:32:46;94795.91;;;21.77;27.87
43217;BME280;60511;42.686;23.300;2023-04-08T03:34:47;94768.72;;;21.57;27.56
43217;BME280;60511;42.686;23.300;2023-04-08T03:36:50;94800.41;;;21.73;27.71
43217;BME280;60511;42.686;23.300;2023-04-08T03:38:50;94711.69;;;21.18;27.52
43217;BME280;60511;42.686;23.300;2023-04-08T03:40:51;94785.34;;;21.72;27.76
43217;BME280;60511;42.686;23.300;2023-04-08T03:42:51;94763.59;;;21.52;28.30
43217;BME280;60511;42.686;23.300;2023-04-08T03:44:53;94781.53;;;21.60;27.90
43217;BME280;60511;42.686;23.300;2023-04-08T03:46:54;94784.81;;;21.66;27.95
43217;BME280;60511;42.686;23.300;2023-04-08T03:48:54;94800.06;;;21.74;27.89
43217;BME280;60511;42.686;23.300;2023-04-08T03:50:55;94779.31;;;21.62;27.72
43217;BME280;60511;42.686;23.300;2023-04-08T03:52:55;94800.41;;;21.73;28.00
43217;BME280;60511;42.686;23.300;2023-04-08T03:54:56;94794.56;;;21.71;27.79
43217;BME280;60511;42.686;23.300;2023-04-08T03:56:56;94795.13;;;21.76;27.48
43217;BME280;60511;42.686;23.300;2023-04-08T03:58:57;94795.13;;;21.76;27.67
43217;BME280;60511;42.686;23.300;2023-04-08T04:00:57;94762.13;;;21.55;27.59
43217;BME280;60511;42.686;23.300;2023-04-08T04:02:58;94797.38;;;21.74;27.70
43217;BME280;60511;42.686;23.300;2023-04-08T04:04:58;94787.59;;;21.70;28.20
43217;BME280;60511;42.686;23.300;2023-04-08T04:06:59;94773.34;;;21.57;28.25
43217;BME280;60511;42.686;23.300;2023-04-08T04:08:59;94799.63;;;21.72;28.05
43217;BME280;60511;42.686;23.300;2023-04-08T04:11:00;94778.53;;;21.62;27.86
43217;BME280;60511;42.686;23.300;2023-04-08T04:13:00;94796.94;;;21.72;27.96
43217;BME280;60511;42.686;23.300;2023-04-08T04:15:01;94763.03;;;21.46;28.54
43217;BME280;60511;42.686;23.300;2023-04-08T04:17:01;94800.72;;;21.71;28.33
43217;BME280;60511;42.686;23.300;2023-04-08T04:19:01;94795.00;;;21.73;28.08
43217;BME280;60511;42.686;23.300;2023-04-08T04:21:04;94804.66;;;21.74;27.96
43217;BME280;60511;42.686;23.300;2023-04-08T04:23:07;94811.50;;;21.71;27.76
43217;BME280;60511;42.686;23.300;2023-04-08T04:25:09;94809.25;;;21.73;27.89
43217;BME280;60511;42.686;23.300;2023-04-08T04:27:09;94810.03;;;21.74;28.05
43217;BME280;60511;42.686;23.300;2023-04-08T04:29:10;94815.66;;;21.69;28.01
43217;BME280;60511;42.686;23.300;2023-04-08T04:31:21;94792.31;;;21.60;27.65
43217;BME280;60511;42.686;23.300;2023-04-08T04:33:22;94798.38;;;21.57;27.83
43217;BME280;60511;42.686;23.300;2023-04-08T04:35:22;94776.03;;;21.44;27.75
43217;BME280;60511;42.686;23.300;2023-04-08T04:37:23;94810.28;;;21.69;27.72
43217;BME280;60511;42.686;23.300;2023-04-08T04:39:23;94731.91;;;21.24;27.81
43217;BME280;60511;42.686;23.300;2023-04-08T04:41:23;94819.72;;;21.75;27.98
43217;BME280;60511;42.686;23.300;2023-04-08T04:43:24;94803.22;;;21.76;27.73
43217;BME280;60511;42.686;23.300;2023-04-08T04:45:24;94816.69;;;21.76;27.54
43217;BME280;60511;42.686;23.300;2023-04-08T04:47:25;94811.28;;;21.76;27.41
43217;BME280;60511;42.686;23.300;2023-04-08T04:49:25;94804.88;;;21.69;27.48
43217;BME280;60511;42.686;23.300;2023-04-08T04:51:30;94732.34;;;21.26;27.61
43217;BME280;60511;42.686;23.300;2023-04-08T04:53:30;94781.53;;;21.60;27.87
43217;BME280;60511;42.686;23.300;2023-04-08T04:55:31;94808.16;;;21.74;27.53
43217;BME280;60511;42.686;23.300;2023-04-08T04:57:31;94786.25;;;21.51;27.73
43217;BME280;60511;42.686;23.300;2023-04-08T04:59:32;94820.16;;;21.77;27.39
43217;BME280;60511;42.686;23.300;2023-04-08T05:01:32;94774.38;;;21.52;27.36
43217;BME280;60511;42.686;23.300;2023-04-08T05:03:33;94824.19;;;21.71;27.71
43217;BME280;60511;42.686;23.300;2023-04-08T05:05:33;94797.91;;;21.55;28.94
43217;BME280;60511;42.686;23.300;2023-04-08T05:07:37;94792.75;;;21.50;28.13
43217;BME280;60511;42.686;23.300;2023-04-08T05:09:38;94822.41;;;21.75;27.70
43217;BME280;60511;42.686;23.300;2023-04-08T05:11:38;94813.53;;;21.74;27.92
43217;BME280;60511;42.686;23.300;2023-04-08T05:13:39;94823.50;;;21.74;27.97
43217;BME280;60511;42.686;23.300;2023-04-08T05:15:39;94798.81;;;21.59;27.79
43217;BME280;60511;42.686;23.300;2023-04-08T05:17:40;94805.78;;;21.60;27.62
43217;BME280;60511;42.686;23.300;2023-04-08T05:19:40;94823.75;;;21.69;28.13
43217;BME280;60511;42.686;23.300;2023-04-08T05:21:40;94827.34;;;21.73;27.95
43217;BME280;60511;42.686;23.300;2023-04-08T05:23:41;94790.06;;;21.50;27.91
43217;BME280;60511;42.686;23.300;2023-04-08T05:25:41;94806.81;;;21.68;28.42
43217;BME280;60511;42.686;23.300;2023-04-08T05:27:41;94819.47;;;21.67;28.41
43217;BME280;60511;42.686;23.300;2023-04-08T05:29:42;94807.13;;;21.66;28.19
43217;BME280;60511;42.686;23.300;2023-04-08T05:31:42;94817.59;;;21.68;27.90
43217;BME280;60511;42.686;23.300;2023-04-08T05:33:43;94815.41;;;21.61;28.37
43217;BME280;60511;42.686;23.300;2023-04-08T05:35:44;94821.84;;;21.69;27.96
43217;BME280;60511;42.686;23.300;2023-04-08T05:37:45;94824.97;;;21.71;28.31
43217;BME280;60511;42.686;23.300;2023-04-08T05:39:45;94789.16;;;21.46;28.56
43217;BME280;60511;42.686;23.300;2023-04-08T05:41:46;94801.63;;;21.63;28.46
43217;BME280;60511;42.686;23.300;2023-04-08T05:43:46;94810.03;;;21.61;28.42
43217;BME280;60511;42.686;23.300;2023-04-08T05:45:46;94799.94;;;21.58;28.56
43217;BME280;60511;42.686;23.300;2023-04-08T05:47:47;94813.53;;;21.74;28.33
43217;BME280;60511;42.686;23.300;2023-04-08T05:49:47;94819.47;;;21.80;28.14
43217;BME280;60511;42.686;23.300;2023-04-08T05:51:48;94822.16;;;21.80;28.40
43217;BME280;60511;42.686;23.300;2023-04-08T05:53:48;94812.84;;;21.77;28.23
43217;BME280;60511;42.686;23.300;2023-04-08T05:55:48;94815.66;;;21.81;28.28
43217;BME280;60511;42.686;23.300;2023-04-08T05:57:49;94824.97;;;21.83;28.41
43217;BME280;60511;42.686;23.300;2023-04-08T05:59:49;94809.50;;;21.80;27.99
43217;BME280;60511;42.686;23.300;2023-04-08T06:01:50;94814.97;;;21.84;28.35
43217;BME280;60511;42.686;23.300;2023-04-08T06:03:50;94809.25;;;21.85;28.26
43217;BME280;60511;42.686;23.300;2023-04-08T06:05:51;94788.72;;;21.69;28.20
43217;BME280;60511;42.686;23.300;2023-04-08T06:07:52;94813.88;;;21.85;28.20
43217;BME280;60511;42.686;23.300;2023-04-08T06:09:52;94807.69;;;21.84;27.90
43217;BME280;60511;42.686;23.300;2023-04-08T06:11:53;94774.69;;;21.63;27.84
43217;BME280;60511;42.686;23.300;2023-04-08T06:13:53;94792.31;;;21.73;27.91
43217;BME280;60511;42.686;23.300;2023-04-08T06:15:54;94806.44;;;21.82;27.98
43217;BME280;60511;42.686;23.300;2023-04-08T06:17:54;94812.41;;;21.87;28.14
43217;BME280;60511;42.686;23.300;2023-04-08T06:19:54;94797.00;;;21.76;28.08
43217;BME280;60511;42.686;23.300;2023-04-08T06:21:55;94786.25;;;21.76;28.17
43217;BME280;60511;42.686;23.300;2023-04-08T06:23:58;94819.13;;;21.94;28.23
43217;BME280;60511;42.686;23.300;2023-04-08T06:25:58;94809.13;;;21.94;27.90
43217;BME280;60511;42.686;23.300;2023-04-08T06:27:58;94821.38;;;21.92;27.76
43217;BME280;60511;42.686;23.300;2023-04-08T06:29:59;94745.47;;;21.40;27.90
43217;BME280;60511;42.686;23.300;2023-04-08T06:31:59;94793.09;;;21.73;28.06
43217;BME280;60511;42.686;23.300;2023-04-08T06:34:00;94817.13;;;21.91;27.93
43217;BME280;60511;42.686;23.300;2023-04-08T06:36:04;94811.16;;;21.85;28.12
43217;BME280;60511;42.686;23.300;2023-04-08T06:38:04;94817.66;;;21.96;27.92
43217;BME280;60511;42.686;23.300;2023-04-08T06:40:05;94802.31;;;21.84;27.98
43217;BME280;60511;42.686;23.300;2023-04-08T06:42:06;94770.97;;;21.67;27.90
43217;BME280;60511;42.686;23.300;2023-04-08T06:44:06;94822.97;;;22.05;27.98
43217;BME280;60511;42.686;23.300;2023-04-08T06:46:07;94823.41;;;22.07;28.45
43217;BME280;60511;42.686;23.300;2023-04-08T06:48:07;94734.88;;;21.44;28.21
43217;BME280;60511;42.686;23.300;2023-04-08T06:50:08;94823.72;;;22.05;28.34
43217;BME280;60511;42.686;23.300;2023-04-08T06:52:09;94793.53;;;21.87;27.97
43217;BME280;60511;42.686;23.300;2023-04-08T06:54:10;94832.72;;;21.97;27.99
43217;BME280;60511;42.686;23.300;2023-04-08T06:56:10;94826.09;;;21.95;27.76
43217;BME280;60511;42.686;23.300;2023-04-08T06:58:10;94807.91;;;21.79;27.97
43217;BME280;60511;42.686;23.300;2023-04-08T07:00:11;94823.06;;;21.96;27.88
43217;BME280;60511;42.686;23.300;2023-04-08T07:02:11;94829.25;;;21.97;27.83
43217;BME280;60511;42.686;23.300;2023-04-08T07:04:12;94812.63;;;21.82;27.78
43217;BME280;60511;42.686;23.300;2023-04-08T07:06:12;94795.78;;;21.73;27.77
43217;BME280;60511;42.686;23.300;2023-04-08T07:08:13;94740.34;;;21.35;27.70
43217;BME280;60511;42.686;23.300;2023-04-08T07:10:13;94805.91;;;21.76;27.90
43217;BME280;60511;42.686;23.300;2023-04-08T07:12:13;94802.84;;;21.78;27.42
43217;BME280;60511;42.686;23.300;2023-04-08T07:14:14;94797.91;;;21.67;27.69
43217;BME280;60511;42.686;23.300;2023-04-08T07:16:15;94788.28;;;21.54;27.48
43217;BME280;60511;42.686;23.300;2023-04-08T07:18:15;94824.97;;;21.83;27.58
43217;BME280;60511;42.686;23.300;2023-04-08T07:20:15;94836.53;;;21.84;27.69
43217;BME280;60511;42.686;23.300;2023-04-08T07:22:16;94811.75;;;21.66;27.59
43217;BME280;60511;42.686;23.300;2023-04-08T07:24:16;94822.16;;;21.67;27.59
43217;BME280;60511;42.686;23.300;2023-04-08T07:26:17;94834.06;;;21.79;27.40
43217;BME280;60511;42.686;23.300;2023-04-08T07:28:17;94832.94;;;21.80;28.23
43217;BME280;60511;42.686;23.300;2023-04-08T07:30:18;94811.84;;;21.70;28.58
43217;BME280;60511;42.686;23.300;2023-04-08T07:32:18;94821.63;;;21.74;28.66
43217;BME280;60511;42.686;23.300;2023-04-08T07:34:19;94816.69;;;21.76;28.92
43217;BME280;60511;42.686;23.300;2023-04-08T07:36:19;94851.91;;;21.96;29.07
43217;BME280;60511;42.686;23.300;2023-04-08T07:38:20;94844.28;;;21.98;28.98
43217;BME280;60511;42.686;23.300;2023-04-08T07:40:20;94848.56;;;21.99;29.19
43217;BME280;60511;42.686;23.300;2023-04-08T07:42:20;94825.75;;;21.84;28.82
43217;BME280;60511;42.686;23.300;2023-04-08T07:44:21;94838.13;;;21.97;28.79
43217;BME280;60511;42.686;23.300;2023-04-08T07:46:21;94854.03;;;22.02;29.06
43217;BME280;60511;42.686;23.300;2023-04-08T07:48:24;94830.94;;;21.89;29.25
43217;BME280;60511;42.686;23.300;2023-04-08T07:50:24;94803.41;;;21.71;28.97
43217;BME280;60511;42.686;23.300;2023-04-08T07:52:25;94856.19;;;22.09;29.10
43217;BME280;60511;42.686;23.300;2023-04-08T07:54:26;94861.22;;;22.11;28.92
43217;BME280;60511;42.686;23.300;2023-04-08T07:56:26;94842.47;;;22.02;29.20
43217;BME280;60511;42.686;23.300;2023-04-08T07:58:27;94831.06;;;21.93;29.38
43217;BME280;60511;42.686;23.300;2023-04-08T08:00:27;94863.25;;;22.14;29.50
43217;BME280;60511;42.686;23.300;2023-04-08T08:02:29;94799.25;;;21.74;29.20
43217;BME280;60511;42.686;23.300;2023-04-08T08:04:30;94868.78;;;22.17;29.23
43217;BME280;60511;42.686;23.300;2023-04-08T08:06:31;94857.19;;;22.04;29.50
43217;BME280;60511;42.686;23.300;2023-04-08T08:08:32;94880.00;;;22.19;29.17
43217;BME280;60511;42.686;23.300;2023-04-08T08:10:34;94872.69;;;22.20;29.53
43217;BME280;60511;42.686;23.300;2023-04-08T08:12:35;94872.00;;;22.23;29.55
43217;BME280;60511;42.686;23.300;2023-04-08T08:14:35;94872.69;;;22.20;29.22
43217;BME280;60511;42.686;23.300;2023-04-08T08:16:35;94845.28;;;22.05;29.49
43217;BME280;60511;42.686;23.300;2023-04-08T08:18:38;94829.91;;;21.94;29.47
43217;BME280;60511;42.686;23.300;2023-04-08T08:20:39;94867.31;;;22.20;29.63
43217;BME280;60511;42.686;23.300;2023-04-08T08:22:39;94866.84;;;22.18;29.51
43217;BME280;60511;42.686;23.300;2023-04-08T08:24:40;94863.13;;;22.22;29.79
43217;BME280;60511;42.686;23.300;2023-04-08T08:26:40;94863.91;;;22.23;29.62
43217;BME280;60511;42.686;23.300;2023-04-08T08:28:40;94849.22;;;22.08;29.86
43217;BME280;60511;42.686;23.300;2023-04-08T08:30:41;94868.22;;;22.24;29.67
43217;BME280;60511;42.686;23.300;2023-04-08T08:32:41;94873.28;;;22.25;29.51
43217;BME280;60511;42.686;23.300;2023-04-08T08:34:42;94868.06;;;22.20;29.77
43217;BME280;60511;42.686;23.300;2023-04-08T08:36:42;94876.31;;;22.24;29.39
43217;BME280;60511;42.686;23.300;2023-04-08T08:38:42;94877.97;;;22.16;29.51
43217;BME280;60511;42.686;23.300;2023-04-08T08:40:44;94809.72;;;21.75;29.44
43217;BME280;60511;42.686;23.300;2023-04-08T08:42:51;94862.56;;;22.17;29.73
43217;BME280;60511;42.686;23.300;2023-04-08T08:44:53;94855.38;;;22.08;29.29
43217;BME280;60511;42.686;23.300;2023-04-08T08:46:54;94861.47;;;22.18;29.04
43217;BME280;60511;42.686;23.300;2023-04-08T08:48:55;94849.22;;;22.08;29.07
43217;BME280;60511;42.686;23.300;2023-04-08T08:50:56;94826.00;;;21.91;29.14
43217;BME280;60511;42.686;23.300;2023-04-08T08:52:58;94869.56;;;22.18;29.00
43217;BME280;60511;42.686;23.300;2023-04-08T08:54:58;94876.41;;;22.15;28.97
43217;BME280;60511;42.686;23.300;2023-04-08T08:56:59;94872.56;;;22.16;28.90
43217;BME280;60511;42.686;23.300;2023-04-08T08:58:59;94869.44;;;22.14;28.84
43217;BME280;60511;42.686;23.300;2023-04-08T09:01:00;94873.28;;;22.13;28.42
43217;BME280;60511;42.686;23.300;2023-04-08T09:03:20;94867.50;;;22.15;28.93
43217;BME280;60511;42.686;23.300;2023-04-08T09:05:21;94869.75;;;22.13;28.58
43217;BME280;60511;42.686;23.300;2023-04-08T09:07:23;94868.97;;;22.12;28.75
43217;BME280;60511;42.686;23.300;2023-04-08T09:09:27;94872.81;;;22.11;28.38
43217;BME280;60511;42.686;23.300;2023-04-08T09:11:27;94862.50;;;22.01;28.36
43217;BME280;60511;42.686;23.300;2023-04-08T09:13:34;94875.50;;;22.11;28.39
43217;BME280;60511;42.686;23.300;2023-04-08T09:15:35;94879.66;;;22.08;28.42
43217;BME280;60511;42.686;23.300;2023-04-08T09:17:39;94840.47;;;21.86;28.61
43217;BME280;60511;42.686;23.300;2023-04-08T09:20:03;94874.25;;;22.08;28.41
43217;BME280;60511;42.686;23.300;2023-04-08T09:22:10;94873.47;;;22.08;28.47
43217;BME280;60511;42.686;23.300;2023-04-08T09:24:27;94877.75;;;22.09;28.71
43217;BME280;60511;42.686;23.300;2023-04-08T09:26:28;94866.97;;;22.09;28.32
43217;BME280;60511;42.686;23.300;2023-04-08T09:28:28;94841.59;;;21.98;28.31
43217;BME280;60511;42.686;23.300;2023-04-08T09:30:31;94861.22;;;22.11;28.40
43217;BME280;60511;42.686;23.300;2023-04-08T09:32:48;94793.66;;;21.66;28.57
43217;BME280;60511;42.686;23.300;2023-04-08T09:34:50;94828.00;;;21.94;28.35
43217;BME280;60511;42.686;23.300;2023-04-08T09:36:52;94862.03;;;22.11;28.09
43217;BME280;60511;42.686;23.300;2023-04-08T09:38:53;94841.81;;;22.05;28.19
43217;BME280;60511;42.686;23.300;2023-04-08T09:40:54;94840.22;;;22.04;28.41
43217;BME280;60511;42.686;23.300;2023-04-08T09:42:56;94854.47;;;22.17;28.61
43217;BME280;60511;42.686;23.300;2023-04-08T09:44:59;94833.81;;;22.08;28.38
43217;BME280;60511;42.686;23.300;2023-04-08T09:47:07;94847.53;;;22.16;28.14
43217;BME280;60511;42.686;23.300;2023-04-08T09:49:12;94850.22;;;22.16;28.44
43217;BME280;60511;42.686;23.300;2023-04-08T09:51:17;94852.94;;;22.16;28.32
43217;BME280;60511;42.686;23.300;2023-04-08T09:53:41;94842.91;;;22.16;28.38
43217;BME280;60511;42.686;23.300;2023-04-08T09:55:49;94847.53;;;22.16;28.50
43217;BME280;60511;42.686;23.300;2023-04-08T09:58:08;94846.41;;;22.17;28.50
43217;BME280;60511;42.686;23.300;2023-04-08T10:00:13;94843.25;;;22.15;28.10
43217;BME280;60511;42.686;23.300;2023-04-08T10:02:16;94830.59;;;22.15;28.35
43217;BME280;60511;42.686;23.300;2023-04-08T10:04:21;94681.19;;;21.02;28.51
43217;BME280;60511;42.686;23.300;2023-04-08T10:06:25;94835.16;;;22.15;28.51
43217;BME280;60511;42.686;23.300;2023-04-08T10:08:28;94818.69;;;22.04;28.29
43217;BME280;60511;42.686;23.300;2023-04-08T10:10:30;94810.28;;;21.93;28.24
43217;BME280;60511;42.686;23.300;2023-04-08T10:12:31;94724.28;;;21.39;28.33
43217;BME280;60511;42.686;23.300;2023-04-08T10:14:31;94837.78;;;22.11;28.25
43217;BME280;60511;42.686;23.300;2023-04-08T10:16:32;94833.94;;;22.12;28.51
43217;BME280;60511;42.686;23.300;2023-04-08T10:18:32;94824.19;;;22.07;28.23
43217;BME280;60511;42.686;23.300;2023-04-08T10:24:34;94827.06;;;22.15;28.48
43217;BME280;60511;42.686;23.300;2023-04-08T10:26:36;94825.84;;;22.12;28.23
43217;BME280;60511;42.686;23.300;2023-04-08T10:28:37;94825.97;;;22.16;28.44
43217;BME280;60511;42.686;23.300;2023-04-08T10:30:45;94802.38;;;22.00;28.33
43217;BME280;60511;42.686;23.300;2023-04-08T10:32:45;94814.41;;;22.15;28.14
43217;BME280;60511;42.686;23.300;2023-04-08T10:34:52;94807.31;;;22.11;28.38
43217;BME280;60511;42.686;23.300;2023-04-08T10:36:54;94787.69;;;21.98;27.93
43217;BME280;60511;42.686;23.300;2023-04-08T10:38:56;94788.13;;;22.00;28.00
43217;BME280;60511;42.686;23.300;2023-04-08T10:40:57;94782.75;;;22.00;28.19
43217;BME280;60511;42.686;23.300;2023-04-08T10:42:58;94765.38;;;21.85;28.06
43217;BME280;60511;42.686;23.300;2023-04-08T10:45:00;94734.72;;;21.65;28.15
43217;BME280;60511;42.686;23.300;2023-04-08T10:47:01;94765.38;;;21.85;28.17